sensor_id;sensor_type;location;lat;lon;timestamp;P1;durP1;ratioP1;P2;durP2;ratioP2
3309;SDS011;1667;53.238;10.394;2023-02-21T00:01:16;3.13;;;2.77;;
3309;SDS011;1667;53.238;10.394;2023-02-21T00:06:31;4.30;;;3.60;;
3309;SDS011;1667;53.238;10.394;2023-02-21T00:11:49;2.53;;;2.10;;
3309;SDS011;1667;53.238;10.394;2023-02-21T00:17:05;5.30;;;3.60;;
3309;SDS011;1667;53.238;10.394;2023-02-21T00:22:21;2.00;;;1.90;;
3309;SDS011;1667;53.238;10.394;2023-02-21T00:27:38;4.73;;;3.37;;
3309;SDS011;1667;53.238;10.394;2023-02-21T00:32:54;4.97;;;3.40;;
3309;SDS011;1667;53.238;10.394;2023-02-21T00:38:10;4.80;;;3.40;;
3309;SDS011;1667;53.238;10.394;2023-02-21T00:43:29;6.27;;;4.30;;
3309;SDS011;1667;53.238;10.394;2023-02-21T00:48:46;5.13;;;3.93;;
3309;SDS011;1667;53.238;10.394;2023-02-21T00:54:02;5.50;;;3.50;;
3309;SDS011;1667;53.238;10.394;2023-02-21T00:59:20;2.77;;;2.20;;
3309;SDS011;1667;53.238;10.394;2023-02-21T01:04:36;5.07;;;3.57;;
3309;SDS011;1667;53.238;10.394;2023-02-21T01:09:52;5.40;;;4.27;;
3309;SDS011;1667;53.238;10.394;2023-02-21T01:15:09;4.70;;;3.73;;
3309;SDS011;1667;53.238;10.394;2023-02-21T01:20:26;4.17;;;3.60;;
3309;SDS011;1667;53.238;10.394;2023-02-21T01:25:41;6.07;;;2.93;;
3309;SDS011;1667;53.238;10.394;2023-02-21T01:30:59;3.60;;;2.80;;
3309;SDS011;1667;53.238;10.394;2023-02-21T01:36:15;3.73;;;3.30;;
3309;SDS011;1667;53.238;10.394;2023-02-21T01:41:31;4.00;;;2.50;;
3309;SDS011;1667;53.238;10.394;2023-02-21T01:46:48;2.80;;;2.60;;
3309;SDS011;1667;53.238;10.394;2023-02-21T01:52:05;4.53;;;3.20;;
3309;SDS011;1667;53.238;10.394;2023-02-21T01:57:21;2.63;;;2.30;;
3309;SDS011;1667;53.238;10.394;2023-02-21T02:02:41;2.47;;;2.03;;
3309;SDS011;1667;53.238;10.394;2023-02-21T02:08:04;5.93;;;2.63;;
3309;SDS011;1667;53.238;10.394;2023-02-21T02:13:24;1.90;;;1.80;;
3309;SDS011;1667;53.238;10.394;2023-02-21T02:18:52;2.33;;;2.13;;
3309;SDS011;1667;53.238;10.394;2023-02-21T02:29:47;3.73;;;1.70;;
3309;SDS011;1667;53.238;10.394;2023-02-21T02:35:06;2.70;;;1.97;;
3309;SDS011;1667;53.238;10.394;2023-02-21T02:40:12;2.30;;;2.10;;
3309;SDS011;1667;53.238;10.394;2023-02-21T02:45:19;2.57;;;2.37;;
3309;SDS011;1667;53.238;10.394;2023-02-21T02:50:24;1.93;;;1.80;;
3309;SDS011;1667;53.238;10.394;2023-02-21T02:55:29;3.90;;;2.47;;
3309;SDS011;1667;53.238;10.394;2023-02-21T03:00:33;4.20;;;2.10;;
3309;SDS011;1667;53.238;10.394;2023-02-21T03:05:42;3.70;;;2.77;;
3309;SDS011;1667;53.238;10.394;2023-02-21T03:10:55;1.70;;;1.60;;
3309;SDS011;1667;53.238;10.394;2023-02-21T03:16:03;2.13;;;2.00;;
3309;SDS011;1667;53.238;10.394;2023-02-21T03:21:10;2.87;;;1.47;;
3309;SDS011;1667;53.238;10.394;2023-02-21T03:26:12;3.10;;;1.70;;
3309;SDS011;1667;53.238;10.394;2023-02-21T03:31:16;1.23;;;1.10;;
3309;SDS011;1667;53.238;10.394;2023-02-21T03:36:20;1.83;;;1.73;;
3309;SDS011;1667;53.238;10.394;2023-02-21T03:41:21;1.03;;;0.93;;
3309;SDS011;1667;53.238;10.394;2023-02-21T03:46:20;2.50;;;1.30;;
3309;SDS011;1667;53.238;10.394;2023-02-21T03:51:20;1.23;;;1.23;;
3309;SDS011;1667;53.238;10.394;2023-02-21T03:56:19;1.30;;;1.20;;
3309;SDS011;1667;53.238;10.394;2023-02-21T04:01:33;1.00;;;1.00;;
3309;SDS011;1667;53.238;10.394;2023-02-21T04:06:33;1.10;;;1.03;;
3309;SDS011;1667;53.238;10.394;2023-02-21T04:11:32;0.90;;;0.90;;
3309;SDS011;1667;53.238;10.394;2023-02-21T04:16:32;0.67;;;0.67;;
3309;SDS011;1667;53.238;10.394;2023-02-21T04:21:30;0.70;;;0.70;;
3309;SDS011;1667;53.238;10.394;2023-02-21T04:26:31;0.60;;;0.60;;
3309;SDS011;1667;53.238;10.394;2023-02-21T04:38:20;0.60;;;0.60;;
3309;SDS011;1667;53.238;10.394;2023-02-21T04:43:21;0.53;;;0.53;;
3309;SDS011;1667;53.238;10.394;2023-02-21T04:48:20;0.70;;;0.70;;
3309;SDS011;1667;53.238;10.394;2023-02-21T04:53:19;3.70;;;0.80;;
3309;SDS011;1667;53.238;10.394;2023-02-21T04:58:17;0.50;;;0.50;;
3309;SDS011;1667;53.238;10.394;2023-02-21T05:03:17;0.50;;;0.50;;
3309;SDS011;1667;53.238;10.394;2023-02-21T05:08:15;0.50;;;0.50;;
3309;SDS011;1667;53.238;10.394;2023-02-21T05:13:14;0.57;;;0.57;;
3309;SDS011;1667;53.238;10.394;2023-02-21T05:18:13;0.40;;;0.40;;
3309;SDS011;1667;53.238;10.394;2023-02-21T05:23:20;0.70;;;0.50;;
3309;SDS011;1667;53.238;10.394;2023-02-21T05:28:29;0.50;;;0.40;;
3309;SDS011;1667;53.238;10.394;2023-02-21T05:33:28;0.50;;;0.50;;
3309;SDS011;1667;53.238;10.394;2023-02-21T05:38:28;0.50;;;0.50;;
3309;SDS011;1667;53.238;10.394;2023-02-21T05:43:27;0.50;;;0.47;;
3309;SDS011;1667;53.238;10.394;2023-02-21T05:48:29;0.50;;;0.50;;
3309;SDS011;1667;53.238;10.394;2023-02-21T05:53:29;0.50;;;0.50;;
3309;SDS011;1667;53.238;10.394;2023-02-21T05:58:27;0.60;;;0.60;;
3309;SDS011;1667;53.238;10.394;2023-02-21T06:03:26;0.40;;;0.40;;
3309;SDS011;1667;53.238;10.394;2023-02-21T06:08:24;0.50;;;0.50;;
3309;SDS011;1667;53.238;10.394;2023-02-21T06:13:25;0.50;;;0.50;;
3309;SDS011;1667;53.238;10.394;2023-02-21T06:18:23;0.50;;;0.50;;
3309;SDS011;1667;53.238;10.394;2023-02-21T06:23:22;0.50;;;0.50;;
3309;SDS011;1667;53.238;10.394;2023-02-21T06:28:21;0.60;;;0.50;;
3309;SDS011;1667;53.238;10.394;2023-02-21T06:33:26;0.50;;;0.50;;
3309;SDS011;1667;53.238;10.394;2023-02-21T06:38:25;0.47;;;0.47;;
3309;SDS011;1667;53.238;10.394;2023-02-21T06:43:23;0.60;;;0.60;;
3309;SDS011;1667;53.238;10.394;2023-02-21T06:48:23;0.60;;;0.60;;
3309;SDS011;1667;53.238;10.394;2023-02-21T06:53:22;1.10;;;0.60;;
3309;SDS011;1667;53.238;10.394;2023-02-21T06:58:21;0.60;;;0.50;;
3309;SDS011;1667;53.238;10.394;2023-02-21T07:03:19;0.60;;;0.60;;
3309;SDS011;1667;53.238;10.394;2023-02-21T07:08:19;0.70;;;0.70;;
3309;SDS011;1667;53.238;10.394;2023-02-21T07:13:18;0.70;;;0.70;;
3309;SDS011;1667;53.238;10.394;2023-02-21T07:18:18;0.60;;;0.60;;
3309;SDS011;1667;53.238;10.394;2023-02-21T07:23:16;1.13;;;0.60;;
3309;SDS011;1667;53.238;10.394;2023-02-21T07:28:16;0.50;;;0.50;;
3309;SDS011;1667;53.238;10.394;2023-02-21T07:33:15;0.60;;;0.60;;
3309;SDS011;1667;53.238;10.394;2023-02-21T07:38:18;0.60;;;0.60;;
3309;SDS011;1667;53.238;10.394;2023-02-21T07:43:18;2.73;;;0.50;;
3309;SDS011;1667;53.238;10.394;2023-02-21T07:48:17;0.60;;;0.60;;
3309;SDS011;1667;53.238;10.394;2023-02-21T07:53:15;0.50;;;0.50;;
3309;SDS011;1667;53.238;10.394;2023-02-21T07:58:14;0.60;;;0.60;;
3309;SDS011;1667;53.238;10.394;2023-02-21T08:03:16;1.13;;;0.50;;
3309;SDS011;1667;53.238;10.394;2023-02-21T08:08:14;0.90;;;0.60;;
3309;SDS011;1667;53.238;10.394;2023-02-21T08:13:13;1.10;;;0.70;;
3309;SDS011;1667;53.238;10.394;2023-02-21T08:18:13;1.77;;;0.70;;
3309;SDS011;1667;53.238;10.394;2023-02-21T08:23:16;0.90;;;0.80;;
3309;SDS011;1667;53.238;10.394;2023-02-21T08:28:15;1.27;;;0.80;;
3309;SDS011;1667;53.238;10.394;2023-02-21T08:33:15;0.60;;;0.60;;
3309;SDS011;1667;53.238;10.394;2023-02-21T08:38:13;0.57;;;0.50;;
3309;SDS011;1667;53.238;10.394;2023-02-21T08:43:12;0.60;;;0.60;;
3309;SDS011;1667;53.238;10.394;2023-02-21T08:48:10;0.53;;;0.53;;
3309;SDS011;1667;53.238;10.394;2023-02-21T08:53:10;0.60;;;0.60;;
3309;SDS011;1667;53.238;10.394;2023-02-21T08:58:10;0.70;;;0.70;;
3309;SDS011;1667;53.238;10.394;2023-02-21T09:03:09;0.90;;;0.90;;
3309;SDS011;1667;53.238;10.394;2023-02-21T09:08:09;0.60;;;0.60;;
3309;SDS011;1667;53.238;10.394;2023-02-21T09:13:08;0.87;;;0.70;;
3309;SDS011;1667;53.238;10.394;2023-02-21T09:18:07;2.43;;;1.20;;
3309;SDS011;1667;53.238;10.394;2023-02-21T09:23:06;0.90;;;0.70;;
3309;SDS011;1667;53.238;10.394;2023-02-21T09:28:05;1.03;;;0.60;;
3309;SDS011;1667;53.238;10.394;2023-02-21T09:33:04;1.73;;;0.70;;
3309;SDS011;1667;53.238;10.394;2023-02-21T09:38:03;0.60;;;0.60;;
3309;SDS011;1667;53.238;10.394;2023-02-21T09:43:06;1.00;;;0.70;;
3309;SDS011;1667;53.238;10.394;2023-02-21T09:48:12;0.50;;;0.50;;
3309;SDS011;1667;53.238;10.394;2023-02-21T09:53:13;0.70;;;0.70;;
3309;SDS011;1667;53.238;10.394;2023-02-21T09:58:17;0.60;;;0.60;;
3309;SDS011;1667;53.238;10.394;2023-02-21T10:03:21;2.67;;;0.70;;
3309;SDS011;1667;53.238;10.394;2023-02-21T10:08:31;0.80;;;0.60;;
3309;SDS011;1667;53.238;10.394;2023-02-21T10:13:38;1.17;;;0.70;;
3309;SDS011;1667;53.238;10.394;2023-02-21T10:18:41;1.13;;;0.70;;
3309;SDS011;1667;53.238;10.394;2023-02-21T10:23:46;0.80;;;0.80;;
3309;SDS011;1667;53.238;10.394;2023-02-21T10:28:48;1.20;;;1.10;;
3309;SDS011;1667;53.238;10.394;2023-02-21T10:33:52;1.63;;;1.13;;
3309;SDS011;1667;53.238;10.394;2023-02-21T10:38:52;3.30;;;0.97;;
3309;SDS011;1667;53.238;10.394;2023-02-21T10:43:57;1.27;;;1.13;;
3309;SDS011;1667;53.238;10.394;2023-02-21T10:49:12;1.67;;;0.93;;
3309;SDS011;1667;53.238;10.394;2023-02-21T10:54:21;1.10;;;1.03;;
3309;SDS011;1667;53.238;10.394;2023-02-21T10:59:24;3.97;;;1.30;;
3309;SDS011;1667;53.238;10.394;2023-02-21T11:04:25;1.10;;;1.10;;
3309;SDS011;1667;53.238;10.394;2023-02-21T11:09:37;7.13;;;1.20;;
3309;SDS011;1667;53.238;10.394;2023-02-21T11:14:38;2.47;;;1.70;;
3309;SDS011;1667;53.238;10.394;2023-02-21T11:19:47;7.60;;;1.40;;
3309;SDS011;1667;53.238;10.394;2023-02-21T11:24:53;7.00;;;1.63;;
3309;SDS011;1667;53.238;10.394;2023-02-21T11:29:57;5.00;;;1.23;;
3309;SDS011;1667;53.238;10.394;2023-02-21T11:35:01;3.47;;;1.13;;
3309;SDS011;1667;53.238;10.394;2023-02-21T11:40:03;6.00;;;1.50;;
3309;SDS011;1667;53.238;10.394;2023-02-21T11:45:10;3.03;;;1.50;;
3309;SDS011;1667;53.238;10.394;2023-02-21T11:50:14;5.40;;;1.73;;
3309;SDS011;1667;53.238;10.394;2023-02-21T11:55:22;1.40;;;1.07;;
3309;SDS011;1667;53.238;10.394;2023-02-21T12:00:25;3.13;;;1.57;;
3309;SDS011;1667;53.238;10.394;2023-02-21T12:05:35;3.43;;;1.17;;
3309;SDS011;1667;53.238;10.394;2023-02-21T12:10:43;4.50;;;1.27;;
3309;SDS011;1667;53.238;10.394;2023-02-21T12:15:50;1.37;;;0.80;;
3309;SDS011;1667;53.238;10.394;2023-02-21T12:21:07;1.87;;;1.17;;
3309;SDS011;1667;53.238;10.394;2023-02-21T12:26:20;1.93;;;0.90;;
3309;SDS011;1667;53.238;10.394;2023-02-21T12:31:35;0.80;;;0.80;;
3309;SDS011;1667;53.238;10.394;2023-02-21T12:36:45;0.73;;;0.60;;
3309;SDS011;1667;53.238;10.394;2023-02-21T12:42:02;2.30;;;0.73;;
3309;SDS011;1667;53.238;10.394;2023-02-21T12:47:14;0.60;;;0.60;;
3309;SDS011;1667;53.238;10.394;2023-02-21T12:52:16;0.60;;;0.60;;
3309;SDS011;1667;53.238;10.394;2023-02-21T12:57:20;0.63;;;0.60;;
3309;SDS011;1667;53.238;10.394;2023-02-21T13:02:26;0.80;;;0.67;;
3309;SDS011;1667;53.238;10.394;2023-02-21T13:07:33;1.00;;;0.53;;
3309;SDS011;1667;53.238;10.394;2023-02-21T13:12:36;0.70;;;0.60;;
3309;SDS011;1667;53.238;10.394;2023-02-21T13:17:41;0.80;;;0.77;;
3309;SDS011;1667;53.238;10.394;2023-02-21T13:28:35;2.10;;;0.60;;
3309;SDS011;1667;53.238;10.394;2023-02-21T13:33:41;0.63;;;0.60;;
3309;SDS011;1667;53.238;10.394;2023-02-21T13:38:41;2.20;;;0.60;;
3309;SDS011;1667;53.238;10.394;2023-02-21T13:43:44;0.60;;;0.60;;
3309;SDS011;1667;53.238;10.394;2023-02-21T13:48:49;1.33;;;0.77;;
3309;SDS011;1667;53.238;10.394;2023-02-21T13:54:26;1.60;;;0.60;;
3309;SDS011;1667;53.238;10.394;2023-02-21T13:59:32;0.53;;;0.50;;
3309;SDS011;1667;53.238;10.394;2023-02-21T14:10:03;0.50;;;0.50;;
3309;SDS011;1667;53.238;10.394;2023-02-21T14:15:03;0.50;;;0.50;;
3309;SDS011;1667;53.238;10.394;2023-02-21T14:20:05;1.77;;;0.50;;
3309;SDS011;1667;53.238;10.394;2023-02-21T14:25:15;0.60;;;0.60;;
3309;SDS011;1667;53.238;10.394;2023-02-21T14:30:24;2.00;;;0.50;;
3309;SDS011;1667;53.238;10.394;2023-02-21T14:35:32;0.60;;;0.60;;
3309;SDS011;1667;53.238;10.394;2023-02-21T14:40:35;0.50;;;0.47;;
3309;SDS011;1667;53.238;10.394;2023-02-21T14:56:50;1.90;;;0.80;;
3309;SDS011;1667;53.238;10.394;2023-02-21T15:02:02;0.87;;;0.80;;
3309;SDS011;1667;53.238;10.394;2023-02-21T15:07:16;0.93;;;0.80;;
3309;SDS011;1667;53.238;10.394;2023-02-21T15:12:18;6.13;;;1.20;;
3309;SDS011;1667;53.238;10.394;2023-02-21T15:17:17;2.57;;;1.00;;
3309;SDS011;1667;53.238;10.394;2023-02-21T15:22:21;1.90;;;0.93;;
3309;SDS011;1667;53.238;10.394;2023-02-21T15:27:21;2.13;;;0.93;;
3309;SDS011;1667;53.238;10.394;2023-02-21T15:32:20;3.43;;;1.23;;
3309;SDS011;1667;53.238;10.394;2023-02-21T15:37:21;1.90;;;1.07;;
3309;SDS011;1667;53.238;10.394;2023-02-21T15:42:22;1.93;;;1.20;;
3309;SDS011;1667;53.238;10.394;2023-02-21T15:47:24;0.93;;;0.80;;
3309;SDS011;1667;53.238;10.394;2023-02-21T15:52:27;4.90;;;1.47;;
3309;SDS011;1667;53.238;10.394;2023-02-21T15:57:28;1.13;;;1.13;;
3309;SDS011;1667;53.238;10.394;2023-02-21T16:02:26;1.37;;;1.23;;
3309;SDS011;1667;53.238;10.394;2023-02-21T16:07:30;2.93;;;1.50;;
3309;SDS011;1667;53.238;10.394;2023-02-21T16:12:33;3.40;;;1.83;;
3309;SDS011;1667;53.238;10.394;2023-02-21T16:17:35;1.83;;;1.70;;
3309;SDS011;1667;53.238;10.394;2023-02-21T16:22:37;3.07;;;2.23;;
3309;SDS011;1667;53.238;10.394;2023-02-21T16:27:57;3.03;;;2.30;;
3309;SDS011;1667;53.238;10.394;2023-02-21T16:32:57;4.70;;;2.67;;
3309;SDS011;1667;53.238;10.394;2023-02-21T16:37:59;5.03;;;2.30;;
3309;SDS011;1667;53.238;10.394;2023-02-21T16:42:58;4.20;;;2.03;;
3309;SDS011;1667;53.238;10.394;2023-02-21T16:47:59;5.60;;;2.40;;
3309;SDS011;1667;53.238;10.394;2023-02-21T16:53:00;1.67;;;1.57;;
3309;SDS011;1667;53.238;10.394;2023-02-21T16:57:59;2.10;;;1.70;;
3309;SDS011;1667;53.238;10.394;2023-02-21T17:03:01;1.80;;;1.33;;
3309;SDS011;1667;53.238;10.394;2023-02-21T17:08:02;4.23;;;1.93;;
3309;SDS011;1667;53.238;10.394;2023-02-21T17:13:01;3.47;;;3.17;;
3309;SDS011;1667;53.238;10.394;2023-02-21T17:17:59;2.20;;;2.10;;
3309;SDS011;1667;53.238;10.394;2023-02-21T17:22:58;2.97;;;2.40;;
3309;SDS011;1667;53.238;10.394;2023-02-21T17:27:59;5.17;;;1.93;;
3309;SDS011;1667;53.238;10.394;2023-02-21T17:32:58;7.10;;;2.53;;
3309;SDS011;1667;53.238;10.394;2023-02-21T17:37:56;2.97;;;2.17;;
3309;SDS011;1667;53.238;10.394;2023-02-21T17:42:58;3.97;;;3.67;;
3309;SDS011;1667;53.238;10.394;2023-02-21T17:47:57;7.30;;;5.70;;
3309;SDS011;1667;53.238;10.394;2023-02-21T17:52:55;4.20;;;3.80;;
3309;SDS011;1667;53.238;10.394;2023-02-21T17:57:54;4.50;;;4.10;;
3309;SDS011;1667;53.238;10.394;2023-02-21T18:02:55;7.70;;;3.40;;
3309;SDS011;1667;53.238;10.394;2023-02-21T18:07:54;4.37;;;2.97;;
3309;SDS011;1667;53.238;10.394;2023-02-21T18:12:53;6.00;;;3.53;;
3309;SDS011;1667;53.238;10.394;2023-02-21T18:17:52;7.77;;;5.60;;
3309;SDS011;1667;53.238;10.394;2023-02-21T18:22:52;8.53;;;5.20;;
3309;SDS011;1667;53.238;10.394;2023-02-21T18:27:51;8.83;;;6.00;;
3309;SDS011;1667;53.238;10.394;2023-02-21T18:32:49;6.87;;;5.00;;
3309;SDS011;1667;53.238;10.394;2023-02-21T18:37:48;7.30;;;6.10;;
3309;SDS011;1667;53.238;10.394;2023-02-21T18:42:48;8.77;;;6.40;;
3309;SDS011;1667;53.238;10.394;2023-02-21T18:47:46;9.47;;;8.23;;
3309;SDS011;1667;53.238;10.394;2023-02-21T18:52:45;13.13;;;8.00;;
3309;SDS011;1667;53.238;10.394;2023-02-21T18:57:44;11.57;;;8.43;;
3309;SDS011;1667;53.238;10.394;2023-02-21T19:02:47;12.60;;;7.97;;
3309;SDS011;1667;53.238;10.394;2023-02-21T19:07:46;8.77;;;7.00;;
3309;SDS011;1667;53.238;10.394;2023-02-21T19:12:44;15.63;;;10.23;;
3309;SDS011;1667;53.238;10.394;2023-02-21T19:17:43;9.03;;;7.00;;
3309;SDS011;1667;53.238;10.394;2023-02-21T19:22:44;11.10;;;7.60;;
3309;SDS011;1667;53.238;10.394;2023-02-21T19:27:44;23.20;;;11.03;;
3309;SDS011;1667;53.238;10.394;2023-02-21T19:32:42;15.70;;;9.00;;
3309;SDS011;1667;53.238;10.394;2023-02-21T19:37:41;16.20;;;8.67;;
3309;SDS011;1667;53.238;10.394;2023-02-21T19:42:41;7.03;;;4.80;;
3309;SDS011;1667;53.238;10.394;2023-02-21T19:47:40;7.00;;;4.93;;
3309;SDS011;1667;53.238;10.394;2023-02-21T19:52:38;9.60;;;6.60;;
3309;SDS011;1667;53.238;10.394;2023-02-21T19:57:37;10.50;;;7.07;;
3309;SDS011;1667;53.238;10.394;2023-02-21T20:02:37;11.03;;;6.53;;
3309;SDS011;1667;53.238;10.394;2023-02-21T20:07:35;10.70;;;5.67;;
3309;SDS011;1667;53.238;10.394;2023-02-21T20:12:34;9.30;;;5.80;;
3309;SDS011;1667;53.238;10.394;2023-02-21T20:17:33;7.60;;;5.50;;
3309;SDS011;1667;53.238;10.394;2023-02-21T20:22:33;14.03;;;6.50;;
3309;SDS011;1667;53.238;10.394;2023-02-21T20:27:32;13.03;;;7.03;;
3309;SDS011;1667;53.238;10.394;2023-02-21T20:32:31;5.67;;;4.53;;
3309;SDS011;1667;53.238;10.394;2023-02-21T20:37:29;10.88;;;6.25;;
3309;SDS011;1667;53.238;10.394;2023-02-21T20:42:29;9.73;;;6.50;;
3309;SDS011;1667;53.238;10.394;2023-02-21T20:47:28;16.03;;;9.87;;
3309;SDS011;1667;53.238;10.394;2023-02-21T20:52:27;15.17;;;9.50;;
3309;SDS011;1667;53.238;10.394;2023-02-21T20:57:26;11.60;;;8.50;;
3309;SDS011;1667;53.238;10.394;2023-02-21T21:02:27;12.93;;;7.57;;
3309;SDS011;1667;53.238;10.394;2023-02-21T21:07:26;10.03;;;7.07;;
3309;SDS011;1667;53.238;10.394;2023-02-21T21:12:25;9.93;;;7.30;;
3309;SDS011;1667;53.238;10.394;2023-02-21T21:17:23;12.30;;;6.67;;
3309;SDS011;1667;53.238;10.394;2023-02-21T21:22:24;12.03;;;7.80;;
3309;SDS011;1667;53.238;10.394;2023-02-21T21:27:24;12.60;;;7.37;;
3309;SDS011;1667;53.238;10.394;2023-02-21T21:32:23;10.50;;;8.33;;
3309;SDS011;1667;53.238;10.394;2023-02-21T21:37:22;11.17;;;7.40;;
3309;SDS011;1667;53.238;10.394;2023-02-21T21:42:24;11.03;;;7.63;;
3309;SDS011;1667;53.238;10.394;2023-02-21T21:47:26;10.50;;;7.67;;
3309;SDS011;1667;53.238;10.394;2023-02-21T21:52:29;13.00;;;9.33;;
3309;SDS011;1667;53.238;10.394;2023-02-21T21:57:27;13.80;;;9.10;;
3309;SDS011;1667;53.238;10.394;2023-02-21T22:02:25;18.03;;;12.00;;
3309;SDS011;1667;53.238;10.394;2023-02-21T22:07:24;16.40;;;11.17;;
3309;SDS011;1667;53.238;10.394;2023-02-21T22:12:24;20.90;;;11.30;;
3309;SDS011;1667;53.238;10.394;2023-02-21T22:17:24;12.00;;;9.20;;
3309;SDS011;1667;53.238;10.394;2023-02-21T22:22:22;13.20;;;8.63;;
3309;SDS011;1667;53.238;10.394;2023-02-21T22:27:21;15.30;;;10.00;;
3309;SDS011;1667;53.238;10.394;2023-02-21T22:32:20;20.40;;;12.60;;
3309;SDS011;1667;53.238;10.394;2023-02-21T22:37:19;24.13;;;14.30;;
3309;SDS011;1667;53.238;10.394;2023-02-21T22:42:17;18.37;;;13.03;;
3309;SDS011;1667;53.238;10.394;2023-02-21T22:47:16;22.70;;;13.23;;
3309;SDS011;1667;53.238;10.394;2023-02-21T22:52:16;19.50;;;11.30;;
3309;SDS011;1667;53.238;10.394;2023-02-21T22:57:15;32.97;;;12.83;;
3309;SDS011;1667;53.238;10.394;2023-02-21T23:02:14;15.60;;;8.60;;
3309;SDS011;1667;53.238;10.394;2023-02-21T23:07:13;11.67;;;8.30;;
3309;SDS011;1667;53.238;10.394;2023-02-21T23:12:13;10.00;;;6.73;;
3309;SDS011;1667;53.238;10.394;2023-02-21T23:17:11;11.23;;;7.17;;
3309;SDS011;1667;53.238;10.394;2023-02-21T23:22:10;8.83;;;6.63;;
3309;SDS011;1667;53.238;10.394;2023-02-21T23:34:05;21.40;;;9.93;;
3309;SDS011;1667;53.238;10.394;2023-02-21T23:39:03;8.90;;;5.60;;
3309;SDS011;1667;53.238;10.394;2023-02-21T23:44:05;9.53;;;6.13;;
3309;SDS011;1667;53.238;10.394;2023-02-21T23:49:08;11.17;;;7.30;;
3309;SDS011;1667;53.238;10.394;2023-02-21T23:54:11;11.40;;;7.63;;
3309;SDS011;1667;53.238;10.394;2023-02-21T23:59:10;12.60;;;7.07;;
